Time;durP1;ratioP1;P1;durP2;ratioP2;P2;SDS_P1;SDS_P2;PMS_P1;PMS_P2;Temp;Humidity;BMP_temperature;BMP_pressure;BME280_temperature;BME280_humidity;BME280_pressure;Samples;Min_cycle;Max_cycle;Signal;HPM_P1;HPM_P2
2023/04/27 00:01:42;;;;;;;1.40;0.93;;;10.10;99.90;;;;;;5114937;28;20432;-66
2023/04/27 00:04:09;;;;;;;1.88;0.80;;;10.00;99.90;;;;;;5116619;28;20840;-67
2023/04/27 00:06:37;;;;;;;1.33;0.82;;;9.90;99.90;;;;;;5115640;28;20431;-67
2023/04/27 00:09:04;;;;;;;1.20;0.80;;;9.90;99.90;;;;;;5116522;28;20416;-67
2023/04/27 00:11:32;;;;;;;1.20;0.70;;;9.90;99.90;;;;;;5116380;28;20892;-68
2023/04/27 00:13:59;;;;;;;1.75;0.80;;;9.90;99.90;;;;;;5116240;28;20452;-67
2023/04/27 00:16:26;;;;;;;1.85;0.80;;;9.80;99.90;;;;;;5115968;28;20866;-67
2023/04/27 00:18:54;;;;;;;2.25;0.90;;;9.80;99.90;;;;;;5115892;28;20416;-68
2023/04/27 00:21:21;;;;;;;1.40;0.75;;;9.80;99.90;;;;;;5116923;28;20835;-67
2023/04/27 00:23:50;;;;;;;2.30;0.80;;;9.80;99.90;;;;;;5116454;28;20417;-68
2023/04/27 00:26:21;;;;;;;1.50;0.80;;;9.90;99.90;;;;;;5116469;28;20431;-67
2023/04/27 00:28:48;;;;;;;2.00;0.80;;;9.90;99.90;;;;;;5116410;28;20449;-68
2023/04/27 00:31:15;;;;;;;1.20;0.70;;;9.90;99.90;;;;;;5115596;28;20819;-68
2023/04/27 00:33:42;;;;;;;1.60;0.80;;;9.90;99.90;;;;;;5116415;28;20467;-68
2023/04/27 00:36:09;;;;;;;1.08;0.80;;;9.80;99.90;;;;;;5115900;28;20455;-68
2023/04/27 00:38:36;;;;;;;2.10;0.80;;;9.80;99.90;;;;;;5116533;28;20412;-68
2023/04/27 00:41:06;;;;;;;2.10;0.80;;;9.80;99.90;;;;;;5115438;28;20422;-68
2023/04/27 00:43:33;;;;;;;1.60;0.70;;;9.80;99.90;;;;;;5116182;28;20869;-68
2023/04/27 00:46:00;;;;;;;1.90;0.80;;;9.80;99.90;;;;;;5116579;28;20897;-68
2023/04/27 00:48:28;;;;;;;1.90;0.80;;;9.70;99.90;;;;;;5116470;28;20424;-67
2023/04/27 00:50:55;;;;;;;1.73;0.80;;;9.70;99.90;;;;;;5115948;28;20432;-68
2023/04/27 00:53:22;;;;;;;1.98;0.80;;;9.70;99.90;;;;;;5114765;28;20419;-68
2023/04/27 00:55:49;;;;;;;1.57;0.70;;;9.60;99.90;;;;;;5115719;28;20526;-68
2023/04/27 00:58:18;;;;;;;3.35;0.82;;;9.70;99.90;;;;;;5115561;28;20420;-68
2023/04/27 01:00:45;;;;;;;1.80;0.90;;;9.70;99.90;;;;;;5115104;28;20858;-67
2023/04/27 01:03:12;;;;;;;1.90;0.70;;;9.70;99.90;;;;;;5115010;28;20847;-68
2023/04/27 01:05:40;;;;;;;1.70;0.80;;;9.70;99.90;;;;;;5115493;28;20424;-67
2023/04/27 01:08:07;;;;;;;2.08;0.80;;;9.70;99.90;;;;;;5115512;28;20485;-68
2023/04/27 01:10:34;;;;;;;1.60;0.70;;;9.70;99.90;;;;;;5115591;28;20863;-67
2023/04/27 01:13:01;;;;;;;1.80;0.90;;;9.70;99.90;;;;;;5115779;28;20419;-68
2023/04/27 01:15:30;;;;;;;1.90;0.70;;;9.70;99.90;;;;;;5115126;28;20432;-68
2023/04/27 01:18:00;;;;;;;1.90;0.80;;;9.80;99.90;;;;;;5114390;28;20439;-68
2023/04/27 01:20:29;;;;;;;1.20;0.80;;;9.80;99.90;;;;;;5114077;28;20438;-66
2023/04/27 01:22:56;;;;;;;3.13;0.80;;;9.80;99.90;;;;;;5115215;28;20843;-68
2023/04/27 01:25:24;;;;;;;1.00;0.77;;;9.90;99.90;;;;;;5115418;28;20459;-68
2023/04/27 01:27:52;;;;;;;2.40;0.80;;;9.90;99.90;;;;;;5115397;28;20420;-69
2023/04/27 01:30:21;;;;;;;2.80;0.90;;;9.90;99.90;;;;;;5114417;28;20569;-68
2023/04/27 01:32:48;;;;;;;1.20;0.70;;;9.90;99.90;;;;;;5115505;28;20420;-69
2023/04/27 01:35:16;;;;;;;1.40;0.90;;;9.90;99.90;;;;;;5114973;28;20510;-69
2023/04/27 01:37:43;;;;;;;1.70;0.82;;;9.80;99.90;;;;;;5114846;28;20420;-69
2023/04/27 01:40:10;;;;;;;2.40;0.90;;;9.70;99.90;;;;;;5115012;28;20477;-69
2023/04/27 01:42:39;;;;;;;1.30;0.80;;;9.60;99.90;;;;;;5114894;28;20444;-68
2023/04/27 01:45:07;;;;;;;1.23;0.80;;;9.60;99.90;;;;;;5115429;28;20423;-68
2023/04/27 01:47:34;;;;;;;1.50;0.80;;;9.50;99.90;;;;;;5115160;28;20441;-68
2023/04/27 01:50:01;;;;;;;2.38;0.70;;;9.50;99.90;;;;;;5114698;28;20465;-68
2023/04/27 01:52:28;;;;;;;1.75;0.80;;;9.50;99.90;;;;;;5114706;28;20421;-68
2023/04/27 01:54:55;;;;;;;0.90;0.80;;;9.40;99.90;;;;;;5115288;28;20753;-68
2023/04/27 01:57:22;;;;;;;2.00;0.80;;;9.40;99.90;;;;;;5114528;28;20423;-68
2023/04/27 01:59:51;;;;;;;1.92;0.80;;;9.40;99.90;;;;;;5114636;28;20475;-67
2023/04/27 02:02:18;;;;;;;2.20;0.80;;;9.40;99.90;;;;;;5114853;28;20837;-69
2023/04/27 02:04:45;;;;;;;1.35;0.80;;;9.40;99.90;;;;;;5115213;28;20416;-69
2023/04/27 02:07:12;;;;;;;1.70;0.80;;;9.40;99.90;;;;;;5115256;28;20416;-68
2023/04/27 02:09:39;;;;;;;1.20;0.80;;;9.40;99.90;;;;;;5115024;28;20420;-67
2023/04/27 02:12:06;;;;;;;1.20;0.90;;;9.40;99.90;;;;;;5114659;28;20461;-68
2023/04/27 02:14:33;;;;;;;1.50;0.70;;;9.40;99.90;;;;;;5114014;28;20411;-67
2023/04/27 02:17:02;;;;;;;1.30;0.80;;;9.50;99.90;;;;;;5114329;28;20420;-69
2023/04/27 02:19:29;;;;;;;1.90;0.80;;;9.50;99.90;;;;;;5114869;28;20476;-67
2023/04/27 02:21:56;;;;;;;1.98;1.08;;;9.50;99.90;;;;;;5114658;28;20420;-67
2023/04/27 02:24:23;;;;;;;1.23;0.80;;;9.50;99.90;;;;;;5115329;28;20424;-67
2023/04/27 02:26:50;;;;;;;2.20;1.00;;;9.50;99.90;;;;;;5115288;28;20843;-67
2023/04/27 02:29:17;;;;;;;3.30;0.80;;;9.50;99.90;;;;;;5114972;28;20423;-68
2023/04/27 02:31:45;;;;;;;2.33;0.90;;;9.50;99.90;;;;;;5115171;28;20777;-68
2023/04/27 02:34:13;;;;;;;1.40;0.90;;;9.50;99.90;;;;;;5114483;28;20878;-69
2023/04/27 02:36:40;;;;;;;1.40;0.98;;;9.40;99.90;;;;;;5115021;28;20912;-68
2023/04/27 02:39:07;;;;;;;2.30;0.87;;;9.30;99.90;;;;;;5115034;28;20464;-68
2023/04/27 02:41:35;;;;;;;1.70;0.80;;;9.30;99.90;;;;;;5114780;28;20424;-68
2023/04/27 02:44:02;;;;;;;2.20;0.90;;;9.30;99.90;;;;;;5115253;28;20850;-67
2023/04/27 02:46:29;;;;;;;2.80;0.90;;;9.30;99.90;;;;;;5115623;28;20424;-66
2023/04/27 02:48:56;;;;;;;3.40;0.80;;;9.30;99.90;;;;;;5115489;28;20428;-67
2023/04/27 02:51:24;;;;;;;2.00;0.90;;;9.30;99.90;;;;;;5116165;28;20461;-67
2023/04/27 02:53:53;;;;;;;2.50;0.95;;;9.30;99.90;;;;;;5115248;28;20522;-67
2023/04/27 02:56:20;;;;;;;1.85;1.30;;;9.30;99.90;;;;;;5114940;28;20428;-67
2023/04/27 02:58:50;;;;;;;1.33;0.90;;;9.20;99.90;;;;;;5115066;28;20844;-66
2023/04/27 03:01:17;;;;;;;1.60;1.00;;;9.20;99.90;;;;;;5114724;28;20428;-68
2023/04/27 03:03:46;;;;;;;1.50;0.88;;;9.20;99.90;;;;;;5114291;28;20404;-67
2023/04/27 03:06:13;;;;;;;2.75;1.00;;;9.30;99.90;;;;;;5114968;28;20519;-68
2023/04/27 03:08:42;;;;;;;1.50;0.90;;;9.40;99.90;;;;;;5114184;28;20422;-68
2023/04/27 03:11:11;;;;;;;1.63;0.90;;;9.40;99.90;;;;;;5114800;28;20443;-68
2023/04/27 03:13:41;;;;;;;2.70;0.90;;;9.50;99.90;;;;;;5115392;28;20466;-68
2023/04/27 03:16:10;;;;;;;1.50;0.90;;;9.60;99.90;;;;;;5114612;28;20454;-68
2023/04/27 03:18:37;;;;;;;1.98;0.90;;;9.50;99.90;;;;;;5115461;28;20424;-68
2023/04/27 03:21:08;;;;;;;2.15;0.90;;;9.60;99.90;;;;;;5114984;28;20428;-66
2023/04/27 03:23:35;;;;;;;1.63;0.90;;;9.60;99.90;;;;;;5114743;28;20731;-67
2023/04/27 03:26:07;;;;;;;1.35;0.80;;;9.60;99.90;;;;;;5116036;28;20747;-67
2023/04/27 03:28:37;;;;;;;1.58;1.00;;;9.60;99.90;;;;;;5118001;28;20458;-68
2023/04/27 03:31:06;;;;;;;1.80;0.98;;;9.50;99.90;;;;;;5118236;28;20435;-67
2023/04/27 03:33:33;;;;;;;1.85;1.00;;;9.50;99.90;;;;;;5118599;28;20420;-66
2023/04/27 03:36:00;;;;;;;1.55;1.00;;;9.40;99.90;;;;;;5118635;28;20428;-67
2023/04/27 03:38:28;;;;;;;1.30;0.80;;;9.30;99.90;;;;;;5119144;28;20417;-67
2023/04/27 03:40:55;;;;;;;1.95;1.20;;;9.30;99.90;;;;;;5118961;28;20423;-67
2023/04/27 03:43:24;;;;;;;2.40;0.90;;;9.20;99.90;;;;;;5119334;28;20469;-67
2023/04/27 03:45:51;;;;;;;1.25;0.90;;;9.20;99.90;;;;;;5119190;28;20477;-67
2023/04/27 03:48:19;;;;;;;2.60;1.00;;;9.20;99.90;;;;;;5118711;28;20774;-66
2023/04/27 03:50:47;;;;;;;1.52;1.00;;;9.10;99.90;;;;;;5118334;28;20436;-66
2023/04/27 03:53:14;;;;;;;2.00;1.00;;;9.20;99.90;;;;;;5119080;28;20701;-66
2023/04/27 03:55:42;;;;;;;2.67;1.10;;;9.20;99.90;;;;;;5118994;28;20839;-67
2023/04/27 03:58:10;;;;;;;2.72;1.00;;;9.20;99.90;;;;;;5118605;28;20416;-66
2023/04/27 04:00:38;;;;;;;1.80;1.00;;;9.20;99.90;;;;;;5116679;28;20426;-67
2023/04/27 04:03:06;;;;;;;3.10;1.00;;;9.20;99.90;;;;;;5116386;28;20475;-68
2023/04/27 04:05:33;;;;;;;1.40;1.00;;;9.30;99.90;;;;;;5116235;28;20416;-68
2023/04/27 04:08:00;;;;;;;2.88;1.00;;;9.40;99.90;;;;;;5113624;28;20417;-68
2023/04/27 04:10:27;;;;;;;2.70;0.90;;;9.40;99.90;;;;;;5113858;28;20454;-68
2023/04/27 04:12:54;;;;;;;1.20;1.00;;;9.50;99.90;;;;;;5115091;28;20408;-68
2023/04/27 04:15:21;;;;;;;4.50;1.10;;;9.40;99.90;;;;;;5115904;28;20426;-68
2023/04/27 04:17:50;;;;;;;2.40;1.00;;;9.30;99.90;;;;;;5116066;28;20408;-69
2023/04/27 04:20:17;;;;;;;2.10;1.00;;;9.40;99.90;;;;;;5115108;28;20424;-69
2023/04/27 04:22:44;;;;;;;2.00;1.20;;;9.40;99.90;;;;;;5115174;28;20426;-69
2023/04/27 04:25:11;;;;;;;1.50;1.10;;;9.30;99.90;;;;;;5115198;28;20424;-68
2023/04/27 04:27:38;;;;;;;1.70;1.10;;;9.30;99.90;;;;;;5116017;28;20412;-69
2023/04/27 04:30:07;;;;;;;4.00;1.00;;;9.20;99.90;;;;;;5116126;28;20427;-69
2023/04/27 04:32:36;;;;;;;1.50;1.00;;;9.20;99.90;;;;;;5114849;28;20431;-69
2023/04/27 04:35:05;;;;;;;2.30;1.10;;;9.20;99.90;;;;;;5114530;28;20844;-69
2023/04/27 04:37:34;;;;;;;2.00;1.20;;;9.30;99.90;;;;;;5114935;28;20831;-69
2023/04/27 04:40:07;;;;;;;2.80;1.10;;;9.20;99.90;;;;;;5115373;28;20885;-70
2023/04/27 04:42:36;;;;;;;1.67;1.10;;;9.30;99.90;;;;;;5115214;28;20780;-70
2023/04/27 04:45:03;;;;;;;2.90;1.10;;;9.40;99.90;;;;;;5115086;28;21038;-68
2023/04/27 04:47:32;;;;;;;1.60;1.10;;;9.40;99.90;;;;;;5115783;28;20424;-69
2023/04/27 04:50:00;;;;;;;2.33;1.17;;;9.50;99.90;;;;;;5115708;28;20560;-68
2023/04/27 04:52:28;;;;;;;2.83;1.20;;;9.60;99.90;;;;;;5115255;28;20446;-69
2023/04/27 04:54:55;;;;;;;1.70;1.20;;;9.60;99.90;;;;;;5115347;28;20427;-69
2023/04/27 04:57:22;;;;;;;2.90;1.30;;;9.50;99.90;;;;;;5114429;28;20413;-69
2023/04/27 04:59:49;;;;;;;3.08;1.20;;;9.50;99.90;;;;;;5115138;28;20416;-69
2023/04/27 05:02:16;;;;;;;3.35;1.40;;;9.40;99.90;;;;;;5113959;28;20457;-69
2023/04/27 05:04:44;;;;;;;2.80;1.60;;;9.40;99.90;;;;;;5114804;28;20812;-68
2023/04/27 05:07:11;;;;;;;1.92;1.65;;;9.50;99.90;;;;;;5114207;28;20465;-68
2023/04/27 05:09:40;;;;;;;3.28;1.90;;;9.50;99.90;;;;;;5113947;28;20420;-68
2023/04/27 05:12:07;;;;;;;2.30;1.60;;;9.50;99.90;;;;;;5113347;28;20428;-68
2023/04/27 05:14:34;;;;;;;2.60;2.00;;;9.30;99.90;;;;;;5113134;28;20411;-69
2023/04/27 05:17:02;;;;;;;2.50;1.80;;;9.20;99.90;;;;;;5112519;28;20457;-69
2023/04/27 05:19:29;;;;;;;2.55;1.95;;;9.30;99.90;;;;;;5111951;28;20423;-69
2023/04/27 05:21:57;;;;;;;3.90;1.70;;;9.30;99.90;;;;;;5113268;28;20499;-68
2023/04/27 05:24:25;;;;;;;3.30;2.05;;;9.30;99.90;;;;;;5110989;28;20719;-69
2023/04/27 05:26:53;;;;;;;2.58;1.80;;;9.40;99.90;;;;;;5103056;28;20519;-69
2023/04/27 05:29:20;;;;;;;3.05;2.03;;;9.50;99.90;;;;;;5091071;28;20424;-69
2023/04/27 05:31:47;;;;;;;2.55;1.42;;;9.60;99.90;;;;;;5089093;28;20434;-69
2023/04/27 05:34:14;;;;;;;2.00;1.80;;;9.60;99.90;;;;;;5088732;28;20787;-69
2023/04/27 05:36:41;;;;;;;2.55;1.70;;;9.60;99.90;;;;;;5104170;28;20432;-68
2023/04/27 05:39:08;;;;;;;2.50;1.90;;;9.60;99.90;;;;;;5112371;28;20408;-68
2023/04/27 05:41:35;;;;;;;2.43;2.13;;;9.60;99.90;;;;;;5111926;28;20462;-68
2023/04/27 05:44:04;;;;;;;5.10;2.22;;;9.70;99.90;;;;;;5110086;28;20426;-67
2023/04/27 05:46:32;;;;;;;2.80;1.92;;;9.70;99.90;;;;;;5099509;28;20428;-68
2023/04/27 05:48:59;;;;;;;4.50;2.30;;;9.80;99.90;;;;;;5102344;28;20425;-67
2023/04/27 05:51:26;;;;;;;4.72;2.60;;;9.80;99.90;;;;;;5094351;28;20898;-68
2023/04/27 05:53:54;;;;;;;3.13;1.75;;;9.70;99.90;;;;;;5098906;28;20760;-67
2023/04/27 05:56:21;;;;;;;3.30;2.50;;;9.60;99.90;;;;;;5105029;28;20429;-68
2023/04/27 05:58:48;;;;;;;4.10;2.60;;;9.70;99.90;;;;;;5100003;28;20448;-68
2023/04/27 06:01:17;;;;;;;5.50;2.30;;;9.80;99.90;;;;;;5095441;28;20483;-68
2023/04/27 06:03:44;;;;;;;3.53;2.10;;;9.90;99.90;;;;;;5099672;28;20452;-68
2023/04/27 06:06:11;;;;;;;2.47;1.95;;;9.90;99.90;;;;;;5095994;28;20443;-68
2023/04/27 06:08:38;;;;;;;2.60;2.20;;;10.00;99.90;;;;;;5098780;28;20438;-67
2023/04/27 06:11:06;;;;;;;4.50;2.38;;;10.10;99.90;;;;;;5103867;28;21035;-69
2023/04/27 06:13:33;;;;;;;3.25;2.20;;;10.00;99.90;;;;;;5094167;28;20422;-68
2023/04/27 06:16:00;;;;;;;4.60;2.80;;;10.00;99.90;;;;;;5105186;28;20843;-68
2023/04/27 06:18:28;;;;;;;3.13;2.30;;;10.10;99.90;;;;;;5104672;28;20462;-69
2023/04/27 06:21:00;;;;;;;2.80;1.98;;;10.10;99.90;;;;;;5111982;28;20416;-69
2023/04/27 06:23:27;;;;;;;3.83;2.10;;;10.20;99.90;;;;;;5102619;28;20435;-69
2023/04/27 06:25:54;;;;;;;4.00;1.80;;;10.30;99.90;;;;;;5109442;28;20432;-69
2023/04/27 06:28:21;;;;;;;2.80;2.10;;;10.30;99.90;;;;;;5109833;28;20422;-69
2023/04/27 06:30:48;;;;;;;3.25;1.80;;;10.40;99.90;;;;;;5112217;28;20415;-68
2023/04/27 06:33:15;;;;;;;2.37;1.70;;;10.60;99.90;;;;;;5107620;28;20478;-68
2023/04/27 06:35:45;;;;;;;3.87;1.80;;;10.60;99.90;;;;;;5102510;28;20432;-67
2023/04/27 06:38:12;;;;;;;4.00;1.70;;;10.60;99.90;;;;;;5105737;28;20433;-67
2023/04/27 06:40:39;;;;;;;2.60;1.70;;;10.60;99.90;;;;;;5097400;28;20836;-68
2023/04/27 06:43:06;;;;;;;3.60;1.80;;;10.60;99.90;;;;;;5103136;28;20444;-68
2023/04/27 06:45:33;;;;;;;3.40;1.60;;;10.50;99.90;;;;;;5108454;28;20957;-68
2023/04/27 06:48:00;;;;;;;3.10;1.40;;;10.60;99.90;;;;;;5104291;28;20464;-69
2023/04/27 06:50:28;;;;;;;2.70;1.70;;;10.60;99.90;;;;;;5103750;28;20438;-69
2023/04/27 06:52:56;;;;;;;2.85;1.50;;;10.70;99.90;;;;;;5102264;28;20507;-68
2023/04/27 06:55:23;;;;;;;3.20;1.40;;;10.80;99.90;;;;;;5111246;28;20843;-67
2023/04/27 06:57:51;;;;;;;2.05;1.55;;;10.80;99.90;;;;;;5092892;28;20469;-67
2023/04/27 07:00:22;;;;;;;3.33;2.30;;;10.90;99.90;;;;;;5105974;28;20434;-67
2023/04/27 07:02:50;;;;;;;3.10;2.67;;;10.90;99.90;;;;;;5107375;28;20427;-67
2023/04/27 07:05:17;;;;;;;3.38;2.05;;;10.90;99.90;;;;;;5100006;28;21098;-67
2023/04/27 07:07:44;;;;;;;3.25;1.90;;;10.80;99.90;;;;;;5111160;28;20739;-67
2023/04/27 07:10:13;;;;;;;2.30;1.90;;;10.90;99.90;;;;;;5108935;28;20437;-67
2023/04/27 07:12:41;;;;;;;3.03;1.92;;;11.00;99.90;;;;;;5109207;28;20423;-67
2023/04/27 07:15:09;;;;;;;3.17;1.90;;;11.10;99.90;;;;;;5110870;28;20440;-67
2023/04/27 07:17:36;;;;;;;3.30;1.63;;;11.10;99.90;;;;;;5111533;28;20477;-69
2023/04/27 07:20:04;;;;;;;3.38;1.85;;;11.10;99.90;;;;;;5106907;28;20457;-69
2023/04/27 07:22:31;;;;;;;2.38;1.55;;;11.30;99.90;;;;;;5102450;28;20428;-68
2023/04/27 07:24:59;;;;;;;2.70;1.90;;;11.30;99.90;;;;;;5104141;28;20433;-68
2023/04/27 07:27:27;;;;;;;3.55;1.40;;;11.30;99.90;;;;;;5106528;28;20432;-68
2023/04/27 07:29:55;;;;;;;3.13;1.60;;;11.40;99.90;;;;;;5107753;28;20435;-69
2023/04/27 07:32:22;;;;;;;3.20;1.50;;;11.60;99.90;;;;;;5100414;28;20434;-67
2023/04/27 07:34:51;;;;;;;1.70;1.30;;;11.80;99.90;;;;;;5102772;28;20461;-66
2023/04/27 07:37:18;;;;;;;2.60;1.40;;;12.10;99.90;;;;;;5103019;28;20979;-67
2023/04/27 07:39:46;;;;;;;2.73;1.40;;;12.20;99.90;;;;;;5103880;28;20490;-66
2023/04/27 07:42:14;;;;;;;2.90;1.60;;;12.50;99.90;;;;;;5108241;28;20421;-64
2023/04/27 07:44:42;;;;;;;2.10;1.20;;;12.50;99.90;;;;;;5102126;28;20420;-67
2023/04/27 07:47:09;;;;;;;2.42;1.30;;;12.60;99.90;;;;;;5108973;28;20424;-66
2023/04/27 07:49:39;;;;;;;3.13;1.30;;;12.60;99.90;;;;;;5108151;28;20531;-65
2023/04/27 07:52:07;;;;;;;2.00;1.30;;;12.70;99.90;;;;;;5095103;28;21022;-67
2023/04/27 07:54:36;;;;;;;2.10;1.35;;;12.90;99.90;;;;;;5109859;28;20464;-66
2023/04/27 07:57:10;;;;;;;2.72;1.20;;;12.90;99.90;;;;;;5100162;28;20487;-66
2023/04/27 07:59:38;;;;;;;2.83;1.25;;;12.90;99.90;;;;;;5110181;28;20423;-66
2023/04/27 08:02:09;;;;;;;1.95;1.30;;;12.80;99.90;;;;;;5104870;28;20429;-67
2023/04/27 08:04:38;;;;;;;3.80;1.50;;;13.00;99.90;;;;;;5110610;28;20428;-66
2023/04/27 08:07:07;;;;;;;2.70;1.38;;;12.90;99.90;;;;;;5108378;28;20488;-64
2023/04/27 08:09:35;;;;;;;4.03;1.30;;;13.00;99.90;;;;;;5109839;28;20416;-67
2023/04/27 08:12:03;;;;;;;1.90;1.10;;;13.10;99.90;;;;;;5104111;28;20976;-66
2023/04/27 08:14:34;;;;;;;2.00;1.20;;;13.30;99.90;;;;;;5101034;28;20428;-64
2023/04/27 08:17:02;;;;;;;3.05;1.10;;;13.40;99.90;;;;;;5104865;28;20439;-66
2023/04/27 08:19:32;;;;;;;1.30;1.20;;;13.40;99.90;;;;;;5104349;28;20436;-64
2023/04/27 08:22:00;;;;;;;2.10;1.05;;;13.60;99.90;;;;;;5110292;28;20439;-67
2023/04/27 08:24:28;;;;;;;2.50;1.10;;;13.70;99.90;;;;;;5107778;28;20520;-61
2023/04/27 08:26:56;;;;;;;2.50;1.00;;;14.00;99.90;;;;;;5109423;28;20740;-63
2023/04/27 08:29:24;;;;;;;1.60;1.00;;;14.10;99.90;;;;;;5108547;28;20420;-62
2023/04/27 08:31:52;;;;;;;2.38;1.00;;;14.10;99.90;;;;;;5109667;28;20523;-62
2023/04/27 08:34:20;;;;;;;1.20;0.90;;;14.20;99.90;;;;;;5107773;28;21132;-62
2023/04/27 08:36:50;;;;;;;2.40;0.90;;;14.40;99.90;;;;;;5101266;28;20433;-63
2023/04/27 08:39:19;;;;;;;1.13;0.80;;;14.60;99.90;;;;;;5102967;28;21024;-62
2023/04/27 08:41:48;;;;;;;1.90;0.90;;;14.70;99.90;;;;;;5109690;28;20428;-62
2023/04/27 08:44:16;;;;;;;2.60;1.00;;;14.60;99.90;;;;;;5104058;28;20432;-62
2023/04/27 08:46:45;;;;;;;2.13;0.90;;;14.70;99.90;;;;;;5100999;28;20438;-62
2023/04/27 08:49:13;;;;;;;1.55;1.00;;;14.90;99.90;;;;;;5102782;28;20435;-63
2023/04/27 08:51:41;;;;;;;1.97;0.90;;;15.00;99.90;;;;;;5110688;28;20435;-62
2023/04/27 08:54:11;;;;;;;1.70;0.90;;;14.90;99.90;;;;;;5112247;28;20563;-63
2023/04/27 08:56:41;;;;;;;2.20;1.00;;;14.90;99.90;;;;;;5109841;28;20534;-62
2023/04/27 08:59:15;;;;;;;1.90;0.90;;;15.00;99.90;;;;;;5109946;28;20435;-63
2023/04/27 09:01:47;;;;;;;1.85;0.90;;;15.10;99.90;;;;;;5107527;28;20432;-62
2023/04/27 09:04:16;;;;;;;1.10;0.90;;;15.20;99.90;;;;;;5112265;28;20448;-62
2023/04/27 09:06:44;;;;;;;2.70;1.00;;;15.30;99.90;;;;;;5111540;28;20767;-62
2023/04/27 09:09:23;;;;;;;1.88;1.00;;;15.50;99.90;;;;;;5105020;28;20643;-59
2023/04/27 09:11:51;;;;;;;1.90;1.00;;;15.40;99.90;;;;;;5097825;28;20432;-61
2023/04/27 09:14:22;;;;;;;1.70;1.10;;;15.40;99.90;;;;;;5110046;28;20428;-60
2023/04/27 09:16:56;;;;;;;2.22;1.10;;;15.70;99.90;;;;;;5108292;28;20467;-62
2023/04/27 09:19:27;;;;;;;1.80;1.00;;;15.70;99.90;;;;;;5110468;28;20412;-61
2023/04/27 09:22:04;;;;;;;2.33;1.02;;;15.70;99.90;;;;;;5104807;28;20476;-62
2023/04/27 09:24:33;;;;;;;1.60;1.10;;;15.80;99.90;;;;;;5109536;28;20847;-61
2023/04/27 09:27:00;;;;;;;1.52;1.00;;;15.90;99.90;;;;;;5109014;28;20498;-62
2023/04/27 09:29:34;;;;;;;1.70;1.00;;;16.10;99.90;;;;;;5098287;28;21269;-61
2023/04/27 09:32:02;;;;;;;2.00;1.10;;;16.10;99.90;;;;;;5103274;28;20451;-62
2023/04/27 09:34:39;;;;;;;1.58;1.00;;;16.40;99.90;;;;;;5095694;28;20821;-61
2023/04/27 09:37:07;;;;;;;2.50;1.00;;;16.50;99.90;;;;;;5102515;28;20533;-59
2023/04/27 09:39:36;;;;;;;2.97;1.00;;;16.60;99.90;;;;;;5102829;28;20439;-60
2023/04/27 09:42:04;;;;;;;2.70;1.00;;;16.60;99.90;;;;;;5097026;28;20926;-61
2023/04/27 09:44:32;;;;;;;3.25;1.10;;;15.90;99.90;;;;;;5098251;28;20867;-61
2023/04/27 09:47:00;;;;;;;1.70;1.02;;;15.80;99.90;;;;;;5104247;28;20731;-61
2023/04/27 09:49:28;;;;;;;1.67;1.10;;;15.90;99.90;;;;;;5107518;28;20883;-60
2023/04/27 09:51:57;;;;;;;1.23;0.90;;;16.00;99.90;;;;;;5100190;28;20507;-63
2023/04/27 09:54:29;;;;;;;2.45;1.00;;;16.20;99.90;;;;;;5102836;28;20649;-62
2023/04/27 09:57:09;;;;;;;1.42;1.00;;;16.30;99.90;;;;;;5108278;28;20750;-62
2023/04/27 09:59:59;;;;;;;1.63;1.20;;;16.60;99.90;;;;;;5092623;28;21026;-61
2023/04/27 10:02:29;;;;;;;2.08;1.10;;;16.70;99.90;;;;;;5101631;28;20473;-60
2023/04/27 10:05:27;;;;;;;2.33;0.98;;;17.10;99.90;;;;;;5095375;28;20433;-61
2023/04/27 10:07:54;;;;;;;2.40;1.30;;;17.40;99.90;;;;;;5089465;28;20413;-61
2023/04/27 10:10:21;;;;;;;2.10;1.10;;;17.60;98.30;;;;;;5093082;28;20439;-60
2023/04/27 10:13:02;;;;;;;2.88;1.20;;;17.70;98.50;;;;;;5089614;28;20849;-61
2023/04/27 10:15:30;;;;;;;1.95;1.20;;;17.70;96.40;;;;;;5096159;28;20623;-62
2023/04/27 10:18:04;;;;;;;2.10;1.00;;;18.10;95.10;;;;;;5091345;28;20438;-62
2023/04/27 10:20:33;;;;;;;1.80;1.00;;;18.10;95.30;;;;;;5101659;28;20870;-61
2023/04/27 10:23:00;;;;;;;3.00;1.10;;;18.50;94.40;;;;;;5099028;28;20435;-62
2023/04/27 10:25:28;;;;;;;1.50;1.20;;;18.40;95.00;;;;;;5093804;28;20534;-61
2023/04/27 10:27:57;;;;;;;2.70;1.40;;;18.30;92.40;;;;;;5104351;28;20443;-62
2023/04/27 10:30:31;;;;;;;2.40;1.42;;;18.50;92.90;;;;;;5093561;28;20841;-61
2023/04/27 10:33:00;;;;;;;1.98;1.50;;;18.20;92.40;;;;;;5106170;28;20783;-62
2023/04/27 10:35:34;;;;;;;2.35;1.30;;;18.00;92.40;;;;;;5093907;28;21057;-61
2023/04/27 10:38:08;;;;;;;2.10;1.20;;;17.80;92.40;;;;;;5101985;28;20757;-61
2023/04/27 10:40:36;;;;;;;1.70;1.40;;;17.80;92.40;;;;;;5105025;28;20497;-59
2023/04/27 10:43:11;;;;;;;3.30;1.40;;;18.10;93.20;;;;;;5108525;28;20793;-59
2023/04/27 10:45:39;;;;;;;2.92;1.20;;;18.70;92.00;;;;;;5106400;28;20432;-59
2023/04/27 10:48:07;;;;;;;1.60;1.20;;;19.20;90.30;;;;;;5097341;28;20850;-59
2023/04/27 10:50:35;;;;;;;1.83;1.30;;;19.70;89.70;;;;;;5097755;28;20762;-61
2023/04/27 10:53:04;;;;;;;1.85;1.00;;;19.90;84.20;;;;;;5106869;28;20739;-60
2023/04/27 10:55:32;;;;;;;1.90;1.30;;;19.90;86.40;;;;;;5094238;28;20432;-59
2023/04/27 10:58:00;;;;;;;1.70;1.30;;;19.80;83.20;;;;;;5109174;28;20755;-60
2023/04/27 11:00:28;;;;;;;1.80;1.30;;;19.90;81.40;;;;;;5106813;28;20449;-59
2023/04/27 11:03:09;;;;;;;2.30;1.00;;;19.60;82.50;;;;;;5108106;28;20428;-59
2023/04/27 11:05:36;;;;;;;2.75;1.10;;;19.90;83.00;;;;;;5101777;28;20436;-59
2023/04/27 11:08:07;;;;;;;3.38;1.40;;;19.70;82.00;;;;;;5106830;28;20514;-60
2023/04/27 11:10:35;;;;;;;2.40;1.10;;;19.90;81.00;;;;;;5103775;28;20439;-60
2023/04/27 11:13:09;;;;;;;2.00;1.10;;;20.00;78.30;;;;;;5093140;28;20456;-61
2023/04/27 11:15:46;;;;;;;2.90;1.20;;;20.00;76.40;;;;;;5103660;28;20535;-60
2023/04/27 11:18:16;;;;;;;1.92;1.00;;;20.00;78.50;;;;;;5101443;28;20677;-60
2023/04/27 11:20:45;;;;;;;1.47;1.00;;;20.10;75.00;;;;;;5101064;28;20436;-59
2023/04/27 11:23:24;;;;;;;1.23;1.00;;;19.70;73.30;;;;;;5102247;28;20468;-61
2023/04/27 11:25:51;;;;;;;1.48;1.00;;;19.30;76.20;;;;;;5098225;28;20527;-60
2023/04/27 11:28:20;;;;;;;1.83;1.00;;;19.10;76.30;;;;;;5105363;28;20460;-61
2023/04/27 11:30:55;;;;;;;2.00;1.30;;;19.00;77.40;;;;;;5104632;28;20932;-60
2023/04/27 11:33:26;;;;;;;1.92;1.10;;;19.30;75.60;;;;;;5101084;28;20428;-60
2023/04/27 11:35:55;;;;;;;2.20;1.20;;;19.70;76.90;;;;;;5098590;28;20434;-61
2023/04/27 11:38:25;;;;;;;1.40;1.00;;;19.80;75.10;;;;;;5098592;28;21086;-62
2023/04/27 11:41:04;;;;;;;1.42;1.00;;;19.90;76.00;;;;;;5100424;28;20440;-59
2023/04/27 11:43:32;;;;;;;1.30;1.10;;;20.20;73.90;;;;;;5102193;28;20882;-60
2023/04/27 11:46:03;;;;;;;2.40;1.08;;;20.30;72.60;;;;;;5105294;28;20428;-62
2023/04/27 11:48:33;;;;;;;2.30;1.00;;;20.40;74.60;;;;;;5105291;28;20428;-60
2023/04/27 11:51:01;;;;;;;3.25;1.10;;;20.30;73.50;;;;;;5108258;28;20739;-61
2023/04/27 11:53:33;;;;;;;1.50;1.00;;;20.30;72.40;;;;;;5104110;28;20841;-60
2023/04/27 11:56:02;;;;;;;2.80;1.10;;;20.30;72.30;;;;;;5100863;28;20424;-60
2023/04/27 11:58:29;;;;;;;2.30;1.20;;;20.30;71.60;;;;;;5109849;28;20431;-62
2023/04/27 12:00:57;;;;;;;1.42;1.10;;;20.30;70.50;;;;;;5106941;28;20440;-59
2023/04/27 12:03:25;;;;;;;6.17;2.50;;;20.20;71.30;;;;;;5096718;28;20414;-60
2023/04/27 12:05:54;;;;;;;1.80;1.27;;;20.50;70.10;;;;;;5097249;28;20681;-63
2023/04/27 12:08:21;;;;;;;2.08;1.00;;;20.20;69.80;;;;;;5097868;28;20435;-59
2023/04/27 12:10:48;;;;;;;3.30;1.30;;;20.20;68.80;;;;;;5098158;28;20443;-61
2023/04/27 12:13:15;;;;;;;1.60;1.00;;;20.20;68.20;;;;;;5109644;28;20621;-60
2023/04/27 12:15:43;;;;;;;1.92;1.02;;;19.90;70.30;;;;;;5101121;28;20468;-59
2023/04/27 12:18:12;;;;;;;2.90;1.90;;;19.80;70.10;;;;;;5097754;28;20848;-58
2023/04/27 12:20:40;;;;;;;1.40;1.10;;;19.50;70.00;;;;;;5108074;28;20435;-58
2023/04/27 12:23:10;;;;;;;2.45;1.20;;;19.30;72.60;;;;;;5102917;28;20587;-61
2023/04/27 12:25:39;;;;;;;1.20;1.00;;;19.50;71.80;;;;;;5108088;28;20436;-60
2023/04/27 12:28:07;;;;;;;2.83;1.20;;;19.60;70.10;;;;;;5107642;28;20803;-60
2023/04/27 12:30:35;;;;;;;2.00;1.00;;;19.40;71.70;;;;;;5102889;28;20442;-59
2023/04/27 12:33:08;;;;;;;1.75;1.10;;;19.40;71.50;;;;;;5109344;28;20440;-61
2023/04/27 12:35:36;;;;;;;1.50;1.10;;;19.50;70.70;;;;;;5101778;28;20560;-60
2023/04/27 12:38:04;;;;;;;1.80;1.10;;;19.60;71.10;;;;;;5101487;28;20434;-59
2023/04/27 12:40:34;;;;;;;1.90;1.00;;;19.90;70.70;;;;;;5090757;28;20426;-58
2023/04/27 12:43:01;;;;;;;2.10;1.10;;;20.00;70.40;;;;;;5101969;28;20457;-60
2023/04/27 12:45:29;;;;;;;1.50;0.90;;;20.10;69.10;;;;;;5098962;28;20430;-61
2023/04/27 12:47:57;;;;;;;1.88;1.00;;;20.20;69.20;;;;;;5101861;28;20424;-60
2023/04/27 12:50:24;;;;;;;1.20;1.00;;;20.10;68.60;;;;;;5096783;28;20534;-57
2023/04/27 12:52:51;;;;;;;2.58;0.90;;;20.00;68.50;;;;;;5108349;28;20432;-58
2023/04/27 12:55:19;;;;;;;2.40;1.00;;;20.20;68.40;;;;;;5101642;28;20849;-59
2023/04/27 12:57:48;;;;;;;1.80;1.20;;;20.30;67.10;;;;;;5103637;28;20426;-59